createdAt,value
2018-11-23T00:01:41.607Z,19.70
2018-11-23T00:04:10.022Z,19.70
2018-11-23T00:06:38.442Z,19.70
2018-11-23T00:09:07.150Z,19.60
2018-11-23T00:11:35.566Z,19.60
2018-11-23T00:14:03.985Z,19.60
2018-11-23T00:16:32.442Z,19.60
2018-11-23T00:19:00.853Z,19.60
2018-11-23T00:21:29.273Z,19.60
2018-11-23T00:23:57.685Z,19.60
2018-11-23T00:26:26.098Z,19.60
2018-11-23T00:28:54.517Z,19.60
2018-11-23T00:31:22.941Z,19.60
2018-11-23T00:33:51.451Z,19.60
2018-11-23T00:36:19.846Z,19.60
2018-11-23T00:38:48.249Z,19.60
2018-11-23T00:41:16.661Z,19.60
2018-11-23T00:43:45.057Z,19.60
2018-11-23T00:46:13.556Z,19.60
2018-11-23T00:48:41.968Z,19.60
2018-11-23T00:51:10.373Z,19.60
2018-11-23T00:53:38.760Z,19.60
2018-11-23T00:56:07.164Z,19.60
2018-11-23T00:58:35.739Z,19.60
2018-11-23T01:01:04.123Z,19.60
2018-11-23T01:03:32.616Z,19.60
2018-11-23T01:06:00.988Z,19.60
2018-11-23T01:08:29.392Z,19.60
2018-11-23T01:10:57.792Z,19.60
2018-11-23T01:13:26.180Z,19.60
2018-11-23T01:15:54.629Z,19.60
2018-11-23T01:18:23.031Z,19.50
2018-11-23T01:20:51.416Z,19.50
2018-11-23T01:23:19.833Z,19.60
2018-11-23T01:25:48.216Z,19.60
2018-11-23T01:28:16.697Z,19.60
2018-11-23T01:30:45.084Z,19.60
2018-11-23T01:33:13.484Z,19.60
2018-11-23T01:35:41.880Z,19.50
2018-11-23T01:38:10.284Z,19.50
2018-11-23T01:40:38.833Z,19.50
2018-11-23T01:43:07.056Z,19.50
2018-11-23T01:45:35.443Z,19.40
2018-11-23T01:48:03.825Z,19.40
2018-11-23T01:50:32.248Z,19.40
2018-11-23T01:53:00.619Z,19.40
2018-11-23T01:55:29.013Z,19.30
2018-11-23T01:57:57.404Z,19.30
2018-11-23T02:00:27.118Z,19.40
2018-11-23T02:02:56.223Z,19.40
2018-11-23T02:05:25.648Z,19.40
2018-11-23T02:07:54.027Z,19.40
2018-11-23T02:10:22.428Z,19.40
2018-11-23T02:12:50.795Z,19.40
2018-11-23T02:15:20.569Z,19.40
2018-11-23T02:17:49.446Z,19.40
2018-11-23T02:20:18.851Z,19.40
2018-11-23T02:22:47.257Z,19.40
2018-11-23T02:25:15.647Z,19.40
2018-11-23T02:27:44.086Z,19.30
2018-11-23T02:30:15.561Z,19.30
2018-11-23T02:32:44.143Z,19.30
2018-11-23T02:35:13.742Z,19.30
2018-11-23T02:37:42.166Z,19.30
2018-11-23T02:40:11.891Z,19.30
2018-11-23T02:42:40.508Z,19.30
2018-11-23T02:45:12.360Z,19.30
2018-11-23T02:47:41.473Z,19.30
2018-11-23T02:50:09.936Z,19.30
2018-11-23T02:52:39.032Z,19.20
2018-11-23T02:55:08.361Z,19.30
2018-11-23T02:57:36.744Z,19.20
2018-11-23T03:00:06.820Z,19.20
2018-11-23T03:02:35.213Z,19.20
2018-11-23T03:05:04.644Z,19.20
2018-11-23T03:07:33.032Z,19.20
2018-11-23T03:10:02.181Z,19.20
2018-11-23T03:12:30.560Z,19.20
2018-11-23T03:14:58.968Z,19.20
2018-11-23T03:17:27.355Z,19.20
2018-11-23T03:19:55.744Z,19.20
2018-11-23T03:22:24.144Z,19.20
2018-11-23T03:24:52.544Z,19.10
2018-11-23T03:27:20.940Z,19.10
2018-11-23T03:29:49.345Z,19.10
2018-11-23T03:32:17.775Z,19.10
2018-11-23T03:34:46.153Z,19.10
2018-11-23T03:37:14.551Z,19.10
2018-11-23T03:39:42.940Z,19.10
2018-11-23T03:42:11.424Z,19.10
2018-11-23T03:44:39.802Z,19.10
2018-11-23T03:47:08.193Z,19.10
2018-11-23T03:49:36.603Z,19.10
2018-11-23T03:52:05.013Z,19.10
2018-11-23T03:54:33.498Z,19.10
2018-11-23T03:57:01.885Z,19.10
2018-11-23T03:59:30.278Z,19.10
2018-11-23T04:01:58.679Z,19.10
2018-11-23T04:04:27.086Z,19.10
2018-11-23T04:06:55.482Z,19.00
2018-11-23T04:09:25.876Z,19.00
2018-11-23T04:11:54.256Z,19.00
2018-11-23T04:14:22.666Z,19.00
2018-11-23T04:16:51.191Z,19.00
2018-11-23T04:19:19.592Z,19.00
2018-11-23T04:21:47.960Z,19.00
2018-11-23T04:24:16.384Z,19.00
2018-11-23T04:26:44.760Z,19.00
2018-11-23T04:29:13.144Z,19.00
2018-11-23T04:31:41.511Z,19.00
2018-11-23T04:34:10.021Z,19.00
2018-11-23T04:36:38.421Z,19.00
2018-11-23T04:39:08.245Z,19.00
2018-11-23T04:41:36.631Z,18.90
2018-11-23T04:44:05.235Z,18.90
2018-11-23T04:46:33.608Z,19.00
2018-11-23T04:49:01.997Z,18.90
2018-11-23T04:51:30.396Z,18.90
2018-11-23T04:53:58.788Z,18.90
2018-11-23T04:56:27.190Z,18.90
2018-11-23T04:58:55.575Z,18.90
2018-11-23T05:01:24.014Z,18.90
2018-11-23T05:03:53.352Z,18.90
2018-11-23T05:06:21.760Z,18.90
2018-11-23T05:08:50.132Z,18.90
2018-11-23T05:11:18.545Z,18.90
2018-11-23T05:13:47.069Z,18.90
2018-11-23T05:16:15.478Z,18.90
2018-11-23T05:18:43.849Z,18.90
2018-11-23T05:21:12.241Z,18.90
2018-11-23T05:23:40.913Z,18.80
2018-11-23T05:26:09.308Z,18.90
2018-11-23T05:28:37.714Z,18.90
2018-11-23T05:31:06.092Z,18.90
2018-11-23T05:33:34.547Z,18.90
2018-11-23T05:36:02.948Z,18.90
2018-11-23T05:38:31.331Z,18.90
2018-11-23T05:40:59.717Z,18.90
2018-11-23T05:43:28.093Z,18.90
2018-11-23T05:45:56.516Z,18.90
2018-11-23T05:48:26.908Z,18.80
2018-11-23T05:50:53.311Z,18.90
2018-11-23T05:53:22.923Z,18.80
2018-11-23T05:55:51.991Z,18.80
2018-11-23T05:58:20.367Z,18.80
2018-11-23T06:00:48.757Z,18.90
2018-11-23T06:03:17.362Z,18.80
2018-11-23T06:05:45.756Z,18.80
2018-11-23T06:08:14.132Z,18.80
2018-11-23T06:10:42.545Z,18.80
2018-11-23T06:13:10.912Z,18.80
2018-11-23T06:15:44.375Z,18.80
2018-11-23T06:18:07.731Z,18.80
2018-11-23T06:20:36.111Z,18.80
2018-11-23T06:23:04.639Z,18.80
2018-11-23T06:25:37.969Z,18.80
2018-11-23T06:28:06.653Z,18.80
2018-11-23T06:30:35.039Z,18.80
2018-11-23T06:33:15.404Z,18.80
2018-11-23T06:35:43.787Z,18.80
2018-11-23T06:38:12.163Z,18.80
2018-11-23T06:40:40.564Z,18.80
2018-11-23T06:43:08.951Z,18.80
2018-11-23T06:45:41.228Z,18.80
2018-11-23T06:48:10.480Z,18.80
2018-11-23T06:50:38.891Z,18.80
2018-11-23T06:53:07.553Z,18.80
2018-11-23T06:55:35.944Z,18.70
2018-11-23T06:58:04.578Z,18.80
2018-11-23T07:00:33.041Z,18.80
2018-11-23T07:03:01.453Z,19.50
2018-11-23T07:05:29.941Z,18.80
2018-11-23T07:07:58.328Z,18.70
2018-11-23T07:10:26.739Z,18.70
2018-11-23T07:12:55.244Z,18.70
2018-11-23T07:15:23.721Z,18.70
2018-11-23T07:17:52.360Z,18.70
2018-11-23T07:20:20.756Z,18.70
2018-11-23T07:22:49.212Z,18.70
2018-11-23T07:25:18.270Z,18.70
2018-11-23T07:27:46.672Z,18.70
2018-11-23T07:30:17.333Z,18.70
2018-11-23T07:32:45.924Z,18.70
2018-11-23T07:35:14.952Z,18.70
2018-11-23T07:37:43.340Z,18.70
2018-11-23T07:40:25.069Z,18.70
2018-11-23T07:42:54.044Z,18.70
2018-11-23T07:45:23.264Z,18.70
2018-11-23T07:47:51.944Z,18.70
2018-11-23T07:50:20.328Z,18.70
2018-11-23T07:52:48.740Z,18.60
2018-11-23T07:55:17.144Z,18.70
2018-11-23T07:57:45.544Z,18.60
2018-11-23T08:00:15.904Z,18.60
2018-11-23T08:02:45.965Z,18.70
2018-11-23T08:05:15.513Z,18.70
2018-11-23T08:07:43.949Z,18.70
2018-11-23T08:10:13.582Z,18.70
2018-11-23T08:12:43.203Z,18.60
2018-11-23T08:15:14.057Z,18.70
2018-11-23T08:17:42.517Z,18.70
2018-11-23T08:20:13.080Z,18.80
2018-11-23T08:22:41.755Z,18.90
2018-11-23T08:25:11.340Z,19.10
2018-11-23T08:27:40.258Z,19.20
2018-11-23T08:30:30.845Z,19.30
2018-11-23T08:32:59.494Z,19.40
2018-11-23T08:35:27.893Z,19.50
2018-11-23T08:37:56.300Z,19.60
2018-11-23T08:40:26.124Z,19.60
2018-11-23T08:42:55.199Z,19.80
2018-11-23T08:45:24.902Z,19.90
2018-11-23T08:47:53.312Z,20.00
2018-11-23T08:50:24.836Z,20.10
2018-11-23T08:52:53.337Z,20.20
2018-11-23T08:55:21.998Z,20.20
2018-11-23T08:57:50.404Z,20.20
2018-11-23T09:00:20.816Z,20.30
2018-11-23T09:02:50.532Z,20.30
2018-11-23T09:05:19.299Z,20.30
2018-11-23T09:07:48.777Z,20.40
2018-11-23T09:10:18.921Z,20.40
2018-11-23T09:12:49.297Z,20.50
2018-11-23T09:15:17.744Z,20.50
2018-11-23T09:17:46.528Z,20.60
2018-11-23T09:20:15.843Z,20.60
2018-11-23T09:22:44.231Z,20.60
2018-11-23T09:25:15.263Z,20.70
2018-11-23T09:27:43.663Z,20.70
2018-11-23T09:30:15.813Z,20.80
2018-11-23T09:32:44.775Z,20.70
2018-11-23T09:35:13.286Z,20.70
2018-11-23T09:37:42.180Z,20.70
2018-11-23T09:40:13.622Z,20.50
2018-11-23T09:42:42.405Z,20.40
2018-11-23T09:45:13.231Z,20.40
2018-11-23T09:47:41.824Z,20.40
2018-11-23T09:50:12.646Z,20.40
2018-11-23T09:52:41.078Z,20.60
2018-11-23T09:55:09.830Z,20.60
2018-11-23T09:57:39.042Z,20.80
2018-11-23T10:00:10.200Z,20.70
2018-11-23T10:02:39.064Z,20.80
2018-11-23T10:05:09.198Z,20.80
2018-11-23T10:07:37.624Z,20.80
2018-11-23T10:10:07.594Z,20.80
2018-11-23T10:12:35.998Z,20.70
2018-11-23T10:15:04.807Z,20.50
2018-11-23T10:17:33.409Z,20.50
2018-11-23T10:20:01.841Z,20.50
2018-11-23T10:22:30.926Z,20.60
2018-11-23T10:24:59.895Z,20.60
2018-11-23T10:27:28.934Z,20.70
2018-11-23T10:29:57.410Z,20.70
2018-11-23T10:32:25.833Z,20.80
2018-11-23T10:34:54.316Z,20.80
2018-11-23T10:37:22.728Z,20.70
2018-11-23T10:39:51.116Z,20.60
2018-11-23T10:42:19.507Z,20.50
2018-11-23T10:44:47.917Z,20.50
2018-11-23T10:47:16.328Z,20.50
2018-11-23T10:49:44.710Z,20.60
2018-11-23T10:52:13.357Z,20.70
2018-11-23T10:54:41.740Z,20.80
2018-11-23T10:57:10.209Z,20.90
2018-11-23T10:59:39.790Z,20.90
2018-11-23T11:02:12.445Z,20.90
2018-11-23T11:04:46.217Z,20.80
2018-11-23T11:07:14.636Z,20.70
2018-11-23T11:09:43.043Z,20.60
2018-11-23T11:12:11.476Z,20.60
2018-11-23T11:14:39.878Z,20.60
2018-11-23T11:17:08.819Z,20.70
2018-11-23T11:19:37.207Z,20.80
2018-11-23T11:22:05.589Z,20.90
2018-11-23T11:24:34.017Z,20.90
2018-11-23T11:27:02.416Z,20.90
2018-11-23T11:29:30.825Z,21.00
2018-11-23T11:31:59.212Z,21.00
2018-11-23T11:34:27.620Z,20.90
2018-11-23T11:36:57.790Z,20.90
2018-11-23T11:39:26.185Z,20.90
2018-11-23T11:41:54.565Z,20.80
2018-11-23T11:44:23.052Z,20.90
2018-11-23T11:46:51.448Z,20.90
2018-11-23T11:49:19.838Z,20.80
2018-11-23T11:51:48.233Z,20.70
2018-11-23T11:54:16.629Z,20.60
2018-11-23T11:56:45.043Z,20.50
2018-11-23T11:59:13.505Z,20.50
2018-11-23T12:01:41.988Z,20.40
2018-11-23T12:04:10.459Z,20.40
2018-11-23T12:06:38.952Z,20.40
2018-11-23T12:09:09.168Z,20.30
2018-11-23T12:11:37.572Z,20.30
2018-11-23T12:14:05.998Z,20.30
2018-11-23T12:16:34.397Z,20.30
2018-11-23T12:19:02.910Z,20.40
2018-11-23T12:21:31.361Z,20.60
2018-11-23T12:23:59.780Z,20.70
2018-11-23T12:26:28.270Z,20.80
2018-11-23T12:28:56.883Z,20.90
2018-11-23T12:31:25.409Z,21.00
2018-11-23T12:33:53.809Z,21.00
2018-11-23T12:36:22.512Z,21.00
2018-11-23T12:38:50.954Z,21.10
2018-11-23T12:41:19.351Z,21.00
2018-11-23T12:43:47.765Z,20.90
2018-11-23T12:46:16.163Z,20.80
2018-11-23T12:48:44.736Z,20.80
2018-11-23T12:51:13.140Z,20.70
2018-11-23T12:53:41.544Z,20.80
2018-11-23T12:56:09.944Z,20.80
2018-11-23T12:58:38.349Z,20.90
2018-11-23T13:01:06.773Z,21.00
2018-11-23T13:03:37.384Z,21.00
2018-11-23T13:06:05.955Z,21.10
2018-11-23T13:08:34.381Z,21.00
2018-11-23T13:11:02.796Z,21.00
2018-11-23T13:13:31.224Z,20.90
2018-11-23T13:15:59.639Z,20.80
2018-11-23T13:18:28.143Z,20.70
2018-11-23T13:20:56.536Z,20.60
2018-11-23T13:23:25.813Z,20.50
2018-11-23T13:25:54.338Z,20.50
2018-11-23T13:28:23.030Z,20.40
2018-11-23T13:30:51.432Z,20.40
2018-11-23T13:33:20.010Z,20.40
2018-11-23T13:35:48.484Z,20.50
2018-11-23T13:38:17.000Z,20.50
2018-11-23T13:40:45.509Z,20.60
2018-11-23T13:43:14.504Z,20.70
2018-11-23T13:45:43.026Z,20.70
2018-11-23T13:48:11.528Z,20.80
2018-11-23T13:50:40.027Z,20.90
2018-11-23T13:53:09.186Z,20.90
2018-11-23T13:55:37.755Z,20.80
2018-11-23T13:58:06.442Z,20.70
2018-11-23T14:00:34.925Z,20.60
2018-11-23T14:03:03.464Z,20.60
2018-11-23T14:05:32.719Z,20.50
2018-11-23T14:08:02.490Z,20.60
2018-11-23T14:10:31.403Z,20.70
2018-11-23T14:13:00.081Z,20.90
2018-11-23T14:15:29.973Z,20.90
2018-11-23T14:17:59.201Z,21.00
2018-11-23T14:20:28.277Z,21.00
2018-11-23T14:22:56.740Z,21.10
2018-11-23T14:25:28.495Z,21.00
2018-11-23T14:27:57.185Z,20.90
2018-11-23T14:30:27.323Z,20.90
2018-11-23T14:32:56.110Z,20.80
2018-11-23T14:35:26.116Z,20.70
2018-11-23T14:37:55.417Z,20.60
2018-11-23T14:40:23.856Z,20.60
2018-11-23T14:42:52.915Z,20.50
2018-11-23T14:45:30.952Z,20.40
2018-11-23T14:48:03.367Z,20.40
2018-11-23T14:50:33.679Z,20.40
2018-11-23T14:53:02.269Z,20.30
2018-11-23T14:55:31.188Z,19.40
2018-11-23T14:57:59.992Z,20.30
2018-11-23T15:00:34.531Z,20.30
2018-11-23T15:03:03.996Z,20.30
2018-11-23T15:05:32.499Z,20.20
2018-11-23T15:08:00.975Z,20.30
2018-11-23T15:10:30.532Z,20.20
2018-11-23T15:13:00.196Z,20.20
2018-11-23T15:15:30.913Z,20.20
2018-11-23T15:18:00.102Z,20.10
2018-11-23T15:20:31.057Z,20.10
2018-11-23T15:23:02.962Z,20.10
2018-11-23T15:25:32.364Z,20.10
2018-11-23T15:28:00.767Z,20.10
2018-11-23T15:30:31.409Z,20.10
2018-11-23T15:32:59.981Z,20.00
2018-11-23T15:35:29.765Z,20.00
2018-11-23T15:37:58.195Z,20.00
2018-11-23T15:40:27.698Z,19.90
2018-11-23T15:42:57.896Z,19.90
2018-11-23T15:45:27.524Z,19.90
2018-11-23T15:47:56.184Z,20.00
2018-11-23T15:50:27.367Z,20.10
2018-11-23T15:52:55.763Z,20.30
2018-11-23T15:55:26.741Z,20.40
2018-11-23T15:57:56.924Z,20.50
2018-11-23T16:00:41.987Z,20.70
2018-11-23T16:03:11.579Z,20.80
2018-11-23T16:05:40.146Z,20.90
2018-11-23T16:08:10.307Z,21.00
2018-11-23T16:10:39.280Z,21.00
2018-11-23T16:13:11.318Z,21.10
2018-11-23T16:15:38.604Z,21.20
2018-11-23T16:18:07.776Z,21.20
2018-11-23T16:20:38.538Z,21.20
2018-11-23T16:23:08.887Z,21.20
2018-11-23T16:25:38.169Z,21.10
2018-11-23T16:28:07.630Z,20.90
2018-11-23T16:30:37.453Z,20.80
2018-11-23T16:33:07.473Z,20.70
2018-11-23T16:35:37.208Z,20.60
2018-11-23T16:38:07.617Z,20.50
2018-11-23T16:40:38.384Z,20.50
2018-11-23T16:43:08.293Z,20.40
2018-11-23T16:45:37.461Z,20.40
2018-11-23T16:48:07.180Z,20.50
2018-11-23T16:50:35.693Z,20.50
2018-11-23T16:53:04.445Z,20.70
2018-11-23T16:55:33.625Z,20.80
2018-11-23T16:58:03.243Z,20.90
2018-11-23T17:00:33.091Z,21.00
2018-11-23T17:03:03.595Z,21.10
2018-11-23T17:05:33.600Z,21.10
2018-11-23T17:08:02.025Z,21.10
2018-11-23T17:10:30.469Z,21.00
2018-11-23T17:12:58.865Z,20.90
2018-11-23T17:15:28.358Z,20.90
2018-11-23T17:17:57.048Z,20.80
2018-11-23T17:20:26.943Z,20.70
2018-11-23T17:22:56.642Z,20.60
2018-11-23T17:25:25.864Z,20.50
2018-11-23T17:27:55.683Z,20.50
2018-11-23T17:30:31.554Z,20.50
2018-11-23T17:33:00.212Z,20.50
2018-11-23T17:35:28.866Z,20.60
2018-11-23T17:37:57.368Z,20.60
2018-11-23T17:40:28.098Z,20.80
2018-11-23T17:42:56.694Z,20.80
2018-11-23T17:45:27.412Z,20.90
2018-11-23T17:47:56.123Z,20.90
2018-11-23T17:50:26.108Z,20.90
2018-11-23T17:52:55.740Z,20.90
2018-11-23T17:55:24.125Z,20.90
2018-11-23T17:57:53.413Z,20.80
2018-11-23T18:00:26.392Z,20.80
2018-11-23T18:02:55.399Z,20.70
2018-11-23T18:05:24.716Z,20.60
2018-11-23T18:07:53.264Z,20.60
2018-11-23T18:10:22.972Z,20.50
2018-11-23T18:12:51.642Z,20.50
2018-11-23T18:15:22.254Z,20.40
2018-11-23T18:17:51.533Z,20.40
2018-11-23T18:20:21.133Z,20.40
2018-11-23T18:22:50.518Z,20.40
2018-11-23T18:25:21.461Z,20.60
2018-11-23T18:27:49.786Z,20.70
2018-11-23T18:30:18.324Z,20.80
2018-11-23T18:32:47.989Z,20.90
2018-11-23T18:35:16.434Z,20.80
2018-11-23T18:37:45.260Z,20.80
2018-11-23T18:40:13.979Z,20.70
2018-11-23T18:42:42.413Z,20.70
2018-11-23T18:45:13.145Z,20.80
2018-11-23T18:47:43.244Z,20.80
2018-11-23T18:50:15.767Z,20.90
2018-11-23T18:52:44.336Z,21.00
2018-11-23T18:55:18.321Z,21.10
2018-11-23T18:57:42.952Z,21.10
2018-11-23T19:00:12.540Z,21.00
2018-11-23T19:02:41.600Z,20.90
2018-11-23T19:05:12.494Z,20.80
2018-11-23T19:07:40.872Z,20.80
2018-11-23T19:10:10.976Z,20.70
2018-11-23T19:12:39.372Z,20.70
2018-11-23T19:15:10.304Z,20.70
2018-11-23T19:17:38.708Z,20.70
2018-11-23T19:20:11.954Z,20.80
2018-11-23T19:22:40.957Z,20.90
2018-11-23T19:25:09.367Z,21.00
2018-11-23T19:27:37.836Z,21.10
2018-11-23T19:30:09.091Z,21.10
2018-11-23T19:32:37.748Z,21.00
2018-11-23T19:35:06.930Z,20.90
2018-11-23T19:37:35.342Z,20.80
2018-11-23T19:40:04.996Z,20.80
2018-11-23T19:42:33.406Z,20.70
2018-11-23T19:45:01.825Z,20.70
2018-11-23T19:47:30.210Z,20.60
2018-11-23T19:49:58.596Z,20.60
2018-11-23T19:52:27.024Z,20.50
2018-11-23T19:54:55.648Z,20.50
2018-11-23T19:57:24.202Z,20.50
2018-11-23T19:59:52.597Z,20.40
2018-11-23T20:02:21.061Z,20.40
2018-11-23T20:04:49.552Z,20.40
2018-11-23T20:07:18.127Z,20.40
2018-11-23T20:09:46.609Z,20.50
2018-11-23T20:12:15.004Z,20.60
2018-11-23T20:14:44.155Z,20.80
2018-11-23T20:17:13.825Z,20.90
2018-11-23T20:19:46.412Z,20.90
2018-11-23T20:22:15.657Z,21.00
2018-11-23T20:24:44.170Z,21.10
2018-11-23T20:27:16.063Z,21.10
2018-11-23T20:29:44.493Z,21.10
2018-11-23T20:32:12.891Z,21.00
2018-11-23T20:34:41.285Z,20.90
2018-11-23T20:37:09.708Z,20.80
2018-11-23T20:39:38.112Z,20.70
2018-11-23T20:42:06.500Z,20.70
2018-11-23T20:44:34.973Z,20.60
2018-11-23T20:47:03.395Z,20.60
2018-11-23T20:49:31.816Z,20.60
2018-11-23T20:52:00.233Z,20.70
2018-11-23T20:54:28.652Z,20.80
2018-11-23T20:56:57.130Z,20.90
2018-11-23T20:59:25.679Z,21.00
2018-11-23T21:01:54.847Z,21.00
2018-11-23T21:04:23.181Z,20.90
2018-11-23T21:06:51.716Z,20.80
2018-11-23T21:09:20.117Z,20.80
2018-11-23T21:11:48.523Z,20.70
2018-11-23T21:14:16.914Z,20.60
2018-11-23T21:16:45.334Z,20.60
2018-11-23T21:19:14.068Z,20.60
2018-11-23T21:21:42.470Z,20.50
2018-11-23T21:24:11.010Z,20.50
2018-11-23T21:26:39.412Z,20.50
2018-11-23T21:29:07.808Z,20.40
2018-11-23T21:31:36.268Z,20.40
2018-11-23T21:34:04.980Z,20.50
2018-11-23T21:36:33.425Z,20.60
2018-11-23T21:39:01.898Z,20.70
2018-11-23T21:41:30.420Z,20.90
2018-11-23T21:43:58.962Z,21.00
2018-11-23T21:46:27.364Z,21.00
2018-11-23T21:48:55.959Z,21.00
2018-11-23T21:51:24.406Z,21.00
2018-11-23T21:53:52.862Z,20.90
2018-11-23T21:56:21.245Z,20.80
2018-11-23T21:58:49.718Z,20.80
2018-11-23T22:01:18.110Z,20.90
2018-11-23T22:03:46.602Z,20.90
2018-11-23T22:06:15.069Z,21.00
2018-11-23T22:08:43.908Z,21.10
2018-11-23T22:11:12.321Z,21.10
2018-11-23T22:13:40.745Z,21.20
2018-11-23T22:16:09.208Z,21.30
2018-11-23T22:18:37.669Z,21.30
2018-11-23T22:21:06.464Z,21.30
2018-11-23T22:23:34.912Z,21.40
2018-11-23T22:26:03.344Z,21.40
2018-11-23T22:28:31.748Z,21.30
2018-11-23T22:31:00.159Z,21.20
2018-11-23T22:33:28.572Z,21.10
2018-11-23T22:35:57.149Z,21.00
2018-11-23T22:38:25.589Z,20.90
2018-11-23T22:40:54.001Z,20.90
2018-11-23T22:43:22.401Z,20.80
2018-11-23T22:45:50.804Z,20.70
2018-11-23T22:48:19.253Z,20.70
2018-11-23T22:50:47.753Z,20.70
2018-11-23T22:53:16.181Z,20.60
2018-11-23T22:55:45.602Z,20.60
2018-11-23T22:58:14.147Z,20.60
2018-11-23T23:00:44.586Z,20.50
2018-11-23T23:03:13.532Z,20.60
2018-11-23T23:05:42.669Z,20.70
2018-11-23T23:08:10.641Z,20.80
2018-11-23T23:10:39.037Z,20.90
2018-11-23T23:13:07.532Z,20.80
2018-11-23T23:15:35.937Z,20.70
2018-11-23T23:18:04.389Z,20.70
2018-11-23T23:20:32.796Z,20.60
2018-11-23T23:23:01.187Z,20.60
2018-11-23T23:25:29.605Z,20.50
2018-11-23T23:27:57.976Z,20.50
2018-11-23T23:30:26.361Z,20.50
2018-11-23T23:32:54.860Z,20.50
2018-11-23T23:35:23.251Z,20.50
2018-11-23T23:37:51.659Z,20.40
2018-11-23T23:40:20.101Z,20.50
2018-11-23T23:42:48.623Z,20.40
2018-11-23T23:45:18.515Z,20.40
2018-11-23T23:47:47.196Z,20.40
2018-11-23T23:50:19.894Z,20.40
2018-11-23T23:52:48.562Z,20.40
2018-11-23T23:55:17.082Z,20.40
2018-11-23T23:57:46.249Z,20.40
